• Join FlightAware (Why Join?)
  • Login
  • US Flag 
06:42AM EDT


 

Airport Tracker/Info


-or-


 

Live Flight TrackerFlight Track Log ✈ SWA267 ✈ 21-Apr-2013 ✈ KSTL - KMCO

Flight Track Log - Related Links

Times and Time Zones

All times are in EDT time to prevent confusion due to time zone crossing. See the SWA267 flight status page for this flight to view local times or setup timezone preferences in your user account.

Time Position Orientation Groundspeed Altitude Reporting Facility
EDT Latitude Longitude Course Direction KTS MPH feet Rate Location/Type
07:06AM 38.7308 -90.2786 124° Southeast 161 185 1,500  Level FAA TRACON SMA TRACON (SMA)
07:07AM 38.7231 -90.2639 124° Southeast 161 185 2,400 2,220 Climbing FAA TRACON SMA TRACON (SMA)
07:07AM 38.7108 -90.2436 128° Southeast 182 209 3,000 2,100 Climbing FAA TRACON SMA TRACON (SMA)
07:07AM 38.7000 -90.2250 127° Southeast 207 238 3,800 2,220 Climbing FAA TRACON SMA TRACON (SMA)
07:08AM 38.6881 -90.2050 127° Southeast 227 261 4,500 2,040 Climbing FAA TRACON SMA TRACON (SMA)
07:08AM 38.6711 -90.1781 129° Southeast 250 288 5,200 2,520 Climbing FAA TRACON SMA TRACON (SMA)
07:08AM 38.6558 -90.1553 131° Southeast 267 307 6,200 2,880 Climbing FAA TRACON SMA TRACON (SMA)
07:09AM 38.6408 -90.1317 129° Southeast 277 319 7,100 2,820 Climbing FAA TRACON SMA TRACON (SMA)
07:09AM 38.6250 -90.1083 131° Southeast 282 325 8,100 3,300 Climbing FAA TRACON SMA TRACON (SMA)
07:09AM 38.6053 -90.0778 130° Southeast 288 331 9,300 3,300 Climbing FAA TRACON SMA TRACON (SMA)
07:10AM 38.5897 -90.0531 129° Southeast 291 335 10,300 2,400 Climbing FAA TRACON SMA TRACON (SMA)
07:10AM 38.5731 -90.0281 130° Southeast 297 342 10,900 1,620 Climbing FAA TRACON SMA TRACON (SMA)
07:10AM 38.5508 -89.9936 130° Southeast 323 372 11,400 1,920 Climbing FAA TRACON SMA TRACON (SMA)
07:11AM 38.5325 -89.9647 129° Southeast 339 390 12,200 2,520 Climbing FAA TRACON SMA TRACON (SMA)
07:11AM 38.5136 -89.9356 130° Southeast 346 398 13,100 2,880 Climbing FAA TRACON SMA TRACON (SMA)
07:11AM 38.4894 -89.8983 130° Southeast 352 405 14,200 2,820 Climbing FAA TRACON SMA TRACON (SMA)
07:12AM 38.4697 -89.8689 131° Southeast 354 407 15,000 2,280 Climbing FAA TRACON SMA TRACON (SMA)
07:12AM 38.4503 -89.8386 129° Southeast 359 413 15,700 2,220 Climbing FAA TRACON SMA TRACON (SMA)
07:12AM 38.4244 -89.8000 130° Southeast 368 423 16,500 2,220 Climbing FAA TRACON SMA TRACON (SMA)
07:13AM 38.4042 -89.7681 129° Southeast 376 433 17,200 2,100 Climbing FAA TRACON SMA TRACON (SMA)
07:13AM 38.3831 -89.7358 130° Southeast 382 440 17,900 1,920 Climbing FAA TRACON SMA TRACON (SMA)
07:13AM 38.3575 -89.6950 129° Southeast 386 444 18,500 1,920 Climbing FAA TRACON SMA TRACON (SMA)
07:14AM 38.3367 -89.6628 129° Southeast 385 443 19,200 2,100 Climbing FAA TRACON SMA TRACON (SMA)
07:14AM 38.3150 -89.6308 131° Southeast 386 444 19,900 2,100 Climbing FAA TRACON SMA TRACON (SMA)
07:14AM 38.2878 -89.5906 131° Southeast 390 449 20,600 1,740 Climbing FAA TRACON SMA TRACON (SMA)
07:15AM 38.2647 -89.5583 132° Southeast 396 456 21,100 1,500 Climbing FAA TRACON SMA TRACON (SMA)
07:15AM 38.2417 -89.5258 132° Southeast 402 463 21,600 1,800 Climbing FAA TRACON SMA TRACON (SMA)
07:15AM 38.2136 -89.4833 130° Southeast 407 468 22,300 1,800 Climbing FAA TRACON SMA TRACON (SMA)
07:16AM 38.1897 -89.4503 133° Southeast 412 474 22,800 1,620 Climbing FAA TRACON SMA TRACON (SMA)
07:16AM 38.1678 -89.4150 128° Southeast 414 476 23,400 1,920 Climbing FAA TRACON SMA TRACON (SMA)
07:16AM 38.1386 -89.3717 131° Southeast 418 481 24,100 1,620 Climbing FAA TRACON SMA TRACON (SMA)
07:17AM 38.1206 -89.3461 132° Southeast 420 483 24,500 600 Climbing FAA TRACON SMA TRACON (SMA)
07:17AM 38.1206 -89.3461 191° South 420 483 24,500 1,500 Level FAA TRACON SMA TRACON (SMA)
07:18AM 38.0411 -89.2928 152° Southeast 426 490 26,000 1,740 Climbing Kansas City Center
07:19AM 37.9606 -89.1758 131° Southeast 440 506 27,400 1,500 Climbing Kansas City Center
07:20AM 37.8722 -89.0517 132° Southeast 441 507 29,200 1,560 Climbing Kansas City Center
07:21AM 37.7975 -88.9433 131° Southeast 442 509 30,600 1,320 Climbing Kansas City Center
07:22AM 37.7169 -88.8311 132° Southeast 437 503 31,900 1,260 Climbing Kansas City Center
07:23AM 37.6350 -88.7181 132° Southeast 431 496 33,200 1,260 Climbing Kansas City Center
07:23AM 37.5931 -88.6611 133° Southeast 436 502 33,800 1,020 Climbing Memphis Center
07:24AM 37.5125 -88.5478 132° Southeast 436 502 34,800 600 Climbing Memphis Center
07:25AM 37.4314 -88.4319 131° Southeast 436 502 35,000 60 Climbing Memphis Center
07:26AM 37.3569 -88.3294 132° Southeast 441 507 35,000  Level Memphis Center
07:27AM 37.2717 -88.2092 132° Southeast 446 513 35,000  Level Memphis Center
07:28AM 37.1778 -88.0817 133° Southeast 446 513 35,000  Level Memphis Center
07:29AM 37.0922 -87.9669 133° Southeast 456 525 35,000  Level Memphis Center
07:30AM 37.0108 -87.8553 132° Southeast 450 518 35,000  Level Memphis Center
07:31AM 36.9292 -87.7436 132° Southeast 442 509 35,000  Level Memphis Center
07:32AM 36.8456 -87.6294 132° Southeast 436 502 35,000  Level Memphis Center
07:33AM 36.7706 -87.5336 134° Southeast 436 502 35,000  Level Memphis Center
07:34AM 36.6886 -87.4203 132° Southeast 436 502 35,000  Level Memphis Center
07:35AM 36.6067 -87.3094 133° Southeast 436 502 35,000  Level Memphis Center
07:36AM 36.5247 -87.1989 133° Southeast 441 507 35,000  Level Memphis Center
07:37AM 36.4406 -87.0886 133° Southeast 441 507 35,000  Level Memphis Center
07:38AM 36.3564 -86.9786 134° Southeast 441 507 35,000  Level Memphis Center
07:39AM 36.2614 -86.8564 134° Southeast 441 507 35,000  Level Memphis Center
07:40AM 36.1833 -86.7519 133° Southeast 446 513 35,000 -60 Level Memphis Center
07:41AM 36.0947 -86.6478 136° Southeast 446 513 34,900  Descending Memphis Center
07:42AM 35.9961 -86.5547 143° Southeast 446 513 35,000  Climbing Memphis Center
07:44AM 35.8147 -86.3869 143° Southeast 452 520 35,000  Level Atlanta Center
07:45AM 35.7244 -86.3050 144° Southeast 452 520 35,000  Level Atlanta Center
07:46AM 35.6217 -86.2308 150° Southeast 441 507 35,000  Level Atlanta Center
07:47AM 35.5142 -86.1642 153° Southeast 434 499 35,000  Level Atlanta Center
07:48AM 35.4092 -86.0925 151° Southeast 429 494 35,000  Level Atlanta Center
07:49AM 35.3017 -86.0264 153° Southeast 429 494 35,000  Level Atlanta Center
07:50AM 35.1942 -85.9550 152° Southeast 429 494 35,000  Level Atlanta Center
07:51AM 35.0889 -85.8917 154° Southeast 429 494 35,000  Level Atlanta Center
07:52AM 34.9833 -85.8233 152° Southeast 429 494 35,000  Level Atlanta Center
07:53AM 34.8781 -85.7553 152° Southeast 429 494 35,000  Level Atlanta Center
07:54AM 34.7703 -85.6875 153° Southeast 429 494 35,000  Level Atlanta Center
07:55AM 34.6628 -85.6197 153° Southeast 429 494 35,000  Level Atlanta Center
07:56AM 34.5572 -85.5547 153° Southeast 429 494 35,000  Level Atlanta Center
07:57AM 34.4494 -85.4847 152° Southeast 429 494 35,000  Level Atlanta Center
07:58AM 34.3356 -85.4122 152° Southeast 424 488 35,000  Level Atlanta Center
07:59AM 34.2256 -85.3453 153° Southeast 430 495 35,000  Level Atlanta Center
08:00AM 34.1200 -85.2758 151° Southeast 430 495 35,000  Level Atlanta Center
08:01AM 34.0100 -85.2092 153° Southeast 436 502 35,000  Level Atlanta Center
08:02AM 33.9000 -85.1450 154° Southeast 436 502 35,000  Level Atlanta Center
08:03AM 33.7900 -85.0761 153° Southeast 442 509 35,000  Level Atlanta Center
08:04AM 33.6797 -85.0075 153° Southeast 447 514 35,000  Level Atlanta Center
08:05AM 33.5675 -84.9389 153° Southeast 447 514 35,000  Level Atlanta Center
08:06AM 33.4553 -84.8703 153° Southeast 447 514 35,000  Level Atlanta Center
08:07AM 33.3578 -84.8097 153° Southeast 447 514 35,000  Level Atlanta Center
08:08AM 33.2453 -84.7417 153° Southeast 447 514 35,000  Level Atlanta Center
08:09AM 33.1350 -84.6739 153° Southeast 447 514 35,000  Level Atlanta Center
08:10AM 33.0269 -84.6086 153° Southeast 447 514 35,000  Level Atlanta Center
08:11AM 32.9167 -84.5386 152° Southeast 442 509 35,000  Level Atlanta Center
08:12AM 32.8042 -84.4739 154° Southeast 447 514 35,000  Level Atlanta Center
08:13AM 32.6833 -84.3992 152° Southeast 447 514 35,000  Level Atlanta Center
08:14AM 32.5728 -84.3347 154° Southeast 447 514 35,000  Level Atlanta Center
08:15AM 32.4622 -84.2678 153° Southeast 447 514 35,000  Level Atlanta Center
08:16AM 32.3497 -84.2011 153° Southeast 447 514 35,000  Level Atlanta Center
08:17AM 32.2392 -84.1322 152° Southeast 447 514 35,000  Level Atlanta Center
08:19AM 32.0633 -84.0275 153° Southeast 442 509 35,000  Level Jacksonville Center
08:20AM 31.9511 -83.9625 154° Southeast 447 514 35,000  Level Jacksonville Center
08:21AM 31.8328 -83.8853 151° Southeast 447 514 35,000  Level Jacksonville Center
08:22AM 31.7183 -83.8206 154° Southeast 452 520 35,000  Level Jacksonville Center
08:23AM 31.6189 -83.7417 146° Southeast 464 534 35,000  Level Jacksonville Center
08:24AM 31.5003 -83.6478 146° Southeast 475 547 35,000  Level Jacksonville Center
08:25AM 31.3944 -83.5644 146° Southeast 469 540 35,000  Level Jacksonville Center
08:26AM 31.2883 -83.4783 145° Southeast 464 534 35,000  Level Jacksonville Center
08:27AM 31.1822 -83.3928 145° Southeast 464 534 35,000  Level Jacksonville Center
08:28AM 31.0842 -83.3172 147° Southeast 464 534 35,000  Level Jacksonville Center
08:29AM 30.9758 -83.2319 146° Southeast 464 534 35,000 -1,200 Level Jacksonville Center
08:30AM 30.8697 -83.1492 146° Southeast 464 534 32,600 -3,120 Descending Jacksonville Center
08:31AM 30.7528 -83.0522 145° Southeast 458 527 28,800 -2,820 Descending Jacksonville Center
08:32AM 30.6694 -82.9892 147° Southeast 458 527 27,000 -900 Descending Jacksonville Center
08:33AM 30.5567 -82.9047 147° Southeast 458 527 27,000  Level Jacksonville Center
08:34AM 30.4564 -82.8250 146° Southeast 452 520 27,000  Level Jacksonville Center
08:35AM 30.3542 -82.7481 147° Southeast 447 514 27,000  Level Jacksonville Center
08:36AM 30.2517 -82.6667 146° Southeast 447 514 27,000  Level Jacksonville Center
08:37AM 30.1472 -82.5900 148° Southeast 447 514 27,000 -300 Level Jacksonville Center
08:38AM 30.0447 -82.5111 146° Southeast 442 509 26,500 -1,020 Descending Jacksonville Center
08:39AM 29.9442 -82.4394 148° Southeast 432 497 25,000 -780 Descending Jacksonville Center
08:40AM 29.8397 -82.3897 158° South 419 482 25,000  Level Jacksonville Center
08:41AM 29.7308 -82.3353 157° South 419 482 25,000  Level Jacksonville Center
08:42AM 29.6219 -82.2858 158° South 419 482 25,000 -240 Level Jacksonville Center
08:43AM 29.5111 -82.2317 157° South 429 494 24,600 -1,320 Descending Jacksonville Center
08:44AM 29.4044 -82.1797 157° South 429 494 22,400 -2,220 Descending Jacksonville Center
08:45AM 29.3039 -82.1331 158° South 416 479 20,200 -2,160 Descending Jacksonville Center
08:46AM 29.2097 -82.0883 157° South 391 450 18,100 -2,100 Descending Jacksonville Center
08:47AM 29.1156 -82.0442 158° South 372 428 16,100 -2,100 Descending Jacksonville Center
08:48AM 29.0233 -81.9972 156° South 365 420 13,900 -2,220 Descending Jacksonville Center
08:49AM 28.9228 -81.9533 159° South 359 413 11,700 -1,500 Descending Jacksonville Center
08:50AM 28.8514 -81.8850 140° Southeast 338 389 11,000 -420 Descending Jacksonville Center
08:50AM 28.8167 -81.8000 115° Southeast 358 412 11,000 -420 Level Orlando TRACON
08:51AM 28.7500 -81.7000 127° Southeast 357 411 10,300 -960 Descending Orlando TRACON
08:52AM 28.7000 -81.6167 124° Southeast 333 383 9,200 -660 Descending Orlando TRACON
08:53AM 28.6667 -81.5333 114° Southeast 298 343 9,000 -120 Descending Orlando TRACON
08:54AM 28.6167 -81.4500 124° Southeast 294 338 9,000  Level Orlando TRACON
08:55AM 28.5500 -81.4167 156° South 267 307 9,000 -360 Level Orlando TRACON
08:56AM 28.4833 -81.4167 180° South 224 258 8,300 -960 Descending Orlando TRACON
08:57AM 28.4167 -81.4167 180° South 225 259 7,100 -1,200 Descending Orlando TRACON
08:58AM 28.3500 -81.4167 180° South 231 266 5,900 -1,200 Descending Orlando TRACON
08:59AM 28.2833 -81.4167 180° South 230 265 4,800 -1,140 Descending Orlando TRACON
09:00AM 28.2333 -81.4167 180° South 228 262 3,700 -1,080 Descending Orlando TRACON
09:01AM 28.2500 -81.3667 69° East 218 251 2,700 -720 Descending Orlando TRACON
09:02AM 28.3000 -81.3333 30° Northeast 158 182 2,300 -600 Descending Orlando TRACON
09:03AM 28.3500 -81.3167 16° North 132 152 1,600 -720 Descending Orlando TRACON
09:04AM 28.3833 -81.3333 336° Northwest 132 152 900 -720 Descending Orlando TRACON
09:06AM 28.4167 -81.3000 24° Northeast  Level FlightAware Approximate
09:13AM 28.4294 -81.3090 24° Northeast  Level Estimated
09:14AM 28.4294 -81.3090 24° Northeast  Level Estimated
09:15AM 28.4294 -81.3090 24° Northeast  Level Estimated
09:16AM 28.4294 -81.3090 24° Northeast  Level Estimated
09:17AM 28.4294 -81.3090 24° Northeast  Level Estimated